createdAt,value
2022-11-22T00:04:15.326Z,15.03
2022-11-22T00:14:36.772Z,16.80
2022-11-22T00:24:58.437Z,15.60
2022-11-22T00:35:20.165Z,16.05
2022-11-22T00:45:41.967Z,14.75
2022-11-22T00:56:03.468Z,13.10
2022-11-22T01:06:24.914Z,12.67
2022-11-22T01:16:47.435Z,12.03
2022-11-22T01:27:08.983Z,11.65
2022-11-22T01:37:30.430Z,11.83
2022-11-22T01:47:52.988Z,11.30
2022-11-22T01:58:15.528Z,11.82
2022-11-22T02:09:02.302Z,11.35
2022-11-22T02:19:39.182Z,11.63
2022-11-22T02:30:00.665Z,12.15
2022-11-22T02:40:23.413Z,11.47
2022-11-22T02:50:45.004Z,12.23
2022-11-22T03:01:06.473Z,12.40
2022-11-22T03:11:28.041Z,13.43
2022-11-22T03:21:50.159Z,13.60
2022-11-22T03:32:11.720Z,13.85
2022-11-22T03:42:33.185Z,13.43
2022-11-22T03:52:54.609Z,13.87
2022-11-22T04:03:17.137Z,14.87
2022-11-22T04:13:57.263Z,14.73
2022-11-22T04:24:37.467Z,15.30
2022-11-22T04:34:58.924Z,17.60
2022-11-22T04:45:20.627Z,16.07
2022-11-22T04:55:46.202Z,16.77
2022-11-22T05:06:07.671Z,17.58
2022-11-22T05:16:29.228Z,17.70
2022-11-22T05:26:50.658Z,17.50
2022-11-22T05:37:12.127Z,16.80
2022-11-22T05:47:35.490Z,17.13
2022-11-22T05:58:03.990Z,16.73
2022-11-22T06:08:25.576Z,17.35
2022-11-22T06:18:47.620Z,16.23
2022-11-22T06:29:09.316Z,16.13
2022-11-22T06:39:31.381Z,15.20
2022-11-22T06:49:53.038Z,16.98
2022-11-22T07:00:15.094Z,17.27
2022-11-22T07:21:04.734Z,16.03
2022-11-22T07:31:28.438Z,16.10
2022-11-22T07:41:49.909Z,16.67
2022-11-22T07:52:11.358Z,16.60
2022-11-22T08:02:32.907Z,15.77
2022-11-22T08:12:58.073Z,14.50
2022-11-22T08:23:19.867Z,15.43
2022-11-22T08:33:41.538Z,17.05
2022-11-22T08:44:03.442Z,15.90
2022-11-22T08:54:24.957Z,15.48
2022-11-22T09:04:46.394Z,15.03
2022-11-22T09:15:08.182Z,14.63
2022-11-22T09:25:29.639Z,14.40
2022-11-22T09:35:51.086Z,15.23
2022-11-22T09:46:32.872Z,14.77
2022-11-22T10:07:24.811Z,14.43
2022-11-22T10:17:58.430Z,14.70
2022-11-22T10:28:35.859Z,12.95
2022-11-22T10:39:00.370Z,14.43
2022-11-22T10:49:41.908Z,13.10
2022-11-22T11:00:18.376Z,12.97
2022-11-22T11:10:40.901Z,10.85
2022-11-22T11:21:02.447Z,10.82
2022-11-22T11:31:42.682Z,11.30
2022-11-22T11:42:25.157Z,10.38
2022-11-22T11:53:03.025Z,9.38
2022-11-22T12:03:25.487Z,8.52
2022-11-22T12:14:18.979Z,7.80
2022-11-22T12:35:27.416Z,8.00
2022-11-22T12:45:53.811Z,7.22
2022-11-22T12:48:22.381Z,6.60
2022-11-22T12:56:33.305Z,8.13
2022-11-22T13:07:19.959Z,7.28
2022-11-22T13:17:41.486Z,5.63
2022-11-22T13:28:11.181Z,4.50
2022-11-22T13:38:32.711Z,4.00
2022-11-22T13:48:54.522Z,3.87
2022-11-22T13:59:18.293Z,3.40
2022-11-22T14:09:44.667Z,3.15
2022-11-22T14:20:34.075Z,4.57
2022-11-22T14:30:57.330Z,6.38
2022-11-22T14:41:38.910Z,6.75
2022-11-22T14:52:01.600Z,6.57
2022-11-22T15:03:00.791Z,6.68
2022-11-22T15:13:38.249Z,6.72
2022-11-22T16:07:27.289Z,6.38
2022-11-22T16:17:59.465Z,6.18
2022-11-22T16:28:38.162Z,6.57
2022-11-22T16:38:59.647Z,6.93
2022-11-22T16:49:22.732Z,3.77
2022-11-22T16:59:44.207Z,5.78
2022-11-22T17:10:06.286Z,6.00
2022-11-22T17:30:50.323Z,5.75
2022-11-22T17:41:11.768Z,5.23
2022-11-22T17:51:33.349Z,5.77
2022-11-22T18:01:54.884Z,5.93
2022-11-22T18:12:16.377Z,6.57
2022-11-22T18:22:37.856Z,5.83
2022-11-22T18:33:00.358Z,5.70
2022-11-22T18:43:21.839Z,5.65
2022-11-22T18:53:43.472Z,5.87
2022-11-22T19:04:05.194Z,5.10
2022-11-22T19:14:29.015Z,5.47
2022-11-22T19:24:51.434Z,4.85
2022-11-22T19:35:13.194Z,5.28
2022-11-22T19:45:34.640Z,5.50
2022-11-22T19:56:01.955Z,6.03
2022-11-22T20:06:23.996Z,5.07
2022-11-22T20:27:09.135Z,5.10
2022-11-22T20:37:30.582Z,5.60
2022-11-22T20:47:52.028Z,5.87
2022-11-22T20:58:13.486Z,5.43
2022-11-22T21:08:35.171Z,4.53
2022-11-22T21:19:00.916Z,4.50
2022-11-22T21:29:22.371Z,3.78
2022-11-22T21:39:44.311Z,3.73
2022-11-22T21:50:11.470Z,3.33
2022-11-22T22:00:33.460Z,3.35
2022-11-22T22:10:58.403Z,2.73
2022-11-22T22:21:21.099Z,2.75
2022-11-22T22:31:42.555Z,2.88
2022-11-22T22:42:04.175Z,2.37
2022-11-22T22:52:25.639Z,2.50
2022-11-22T23:02:47.380Z,2.63
2022-11-22T23:13:08.887Z,2.13
2022-11-22T23:23:30.862Z,2.23
2022-11-22T23:33:52.340Z,1.88
2022-11-22T23:44:13.990Z,2.00
2022-11-22T23:54:35.443Z,1.97
